createdAt,value
2017-10-19T00:00:18.536Z,43.3
2017-10-19T00:01:20.191Z,39.6
2017-10-19T00:02:21.848Z,41.6
2017-10-19T00:03:23.518Z,44.9
2017-10-19T00:04:25.206Z,41.6
2017-10-19T00:05:26.861Z,39.6
2017-10-19T00:06:28.523Z,37.1
2017-10-19T00:07:30.181Z,43.3
2017-10-19T00:08:31.871Z,47.3
2017-10-19T00:09:33.520Z,47.6
2017-10-19T00:10:35.178Z,45.0
2017-10-19T00:11:36.832Z,57.9
2017-10-19T00:12:38.486Z,50.0
2017-10-19T00:13:40.144Z,44.8
2017-10-19T00:14:41.798Z,49.2
2017-10-19T00:15:43.460Z,50.4
2017-10-19T00:16:45.123Z,51.9
2017-10-19T00:17:46.806Z,60.6
2017-10-19T00:18:48.468Z,51.6
2017-10-19T00:19:50.129Z,59.2
2017-10-19T00:20:51.783Z,50.3
2017-10-19T00:21:53.433Z,48.6
2017-10-19T00:22:55.093Z,46.6
2017-10-19T00:23:56.786Z,45.8
2017-10-19T00:24:58.483Z,55.6
2017-10-19T00:26:00.177Z,52.6
2017-10-19T00:27:01.877Z,69.8
2017-10-19T00:28:03.544Z,68.7
2017-10-19T00:29:05.202Z,54.1
2017-10-19T00:30:06.868Z,72.4
2017-10-19T00:31:08.522Z,95.3
2017-10-19T00:32:10.181Z,143.0
2017-10-19T00:33:11.871Z,91.8
2017-10-19T00:34:13.537Z,109.3
2017-10-19T00:35:15.187Z,158.7
2017-10-19T00:36:16.848Z,98.6
2017-10-19T00:37:18.519Z,110.9
2017-10-19T00:38:20.196Z,143.3
2017-10-19T00:39:21.890Z,107.7
2017-10-19T00:40:23.548Z,118.6
2017-10-19T00:41:25.225Z,141.0
2017-10-19T00:42:26.882Z,117.2
2017-10-19T00:43:28.538Z,140.9
2017-10-19T00:44:30.194Z,125.3
2017-10-19T00:45:31.859Z,106.8
2017-10-19T00:46:33.517Z,103.3
2017-10-19T00:47:35.201Z,86.2
2017-10-19T00:48:36.858Z,115.2
2017-10-19T00:49:38.511Z,97.0
2017-10-19T00:50:40.167Z,76.6
2017-10-19T00:51:41.825Z,111.8
2017-10-19T00:52:43.477Z,102.9
2017-10-19T00:53:45.137Z,129.5
2017-10-19T00:54:46.798Z,142.6
2017-10-19T00:55:48.479Z,77.5
2017-10-19T00:56:50.148Z,77.8
2017-10-19T00:57:51.803Z,104.0
2017-10-19T00:58:53.463Z,85.4
2017-10-19T00:59:55.130Z,70.8
2017-10-19T01:00:56.789Z,80.8
2017-10-19T01:01:58.470Z,67.3
2017-10-19T01:03:00.123Z,61.7
2017-10-19T01:04:01.789Z,62.6
2017-10-19T01:05:03.483Z,55.8
2017-10-19T01:06:05.130Z,70.5
2017-10-19T01:07:06.795Z,63.7
2017-10-19T01:08:08.454Z,67.0
2017-10-19T01:09:10.113Z,54.6
2017-10-19T01:10:11.797Z,57.9
2017-10-19T01:11:13.506Z,56.8
2017-10-19T01:12:15.311Z,54.3
2017-10-19T01:13:16.954Z,52.9
2017-10-19T01:14:18.609Z,46.4
2017-10-19T01:15:20.271Z,47.7
2017-10-19T01:16:21.929Z,45.9
2017-10-19T01:17:23.619Z,49.0
2017-10-19T01:18:25.299Z,46.6
2017-10-19T01:19:26.952Z,57.5
2017-10-19T01:20:28.799Z,47.9
2017-10-19T01:21:30.455Z,45.1
2017-10-19T01:22:32.123Z,49.0
2017-10-19T01:23:33.791Z,38.9
2017-10-19T01:24:35.444Z,45.7
2017-10-19T01:25:37.101Z,42.4
2017-10-19T01:26:38.758Z,40.4
2017-10-19T01:27:40.436Z,39.3
2017-10-19T01:28:42.089Z,44.7
2017-10-19T01:29:43.748Z,46.0
2017-10-19T01:30:45.407Z,41.3
2017-10-19T01:31:47.072Z,39.2
2017-10-19T01:32:48.725Z,37.5
2017-10-19T01:33:50.378Z,47.1
2017-10-19T01:34:52.035Z,43.1
2017-10-19T01:35:53.699Z,42.5
2017-10-19T01:36:55.361Z,47.5
2017-10-19T01:37:57.016Z,56.6
2017-10-19T01:38:58.678Z,45.3
2017-10-19T01:40:00.333Z,43.8
2017-10-19T01:41:01.985Z,41.5
2017-10-19T01:42:03.662Z,52.3
2017-10-19T01:43:05.328Z,43.4
2017-10-19T01:44:06.990Z,46.5
2017-10-19T01:45:08.649Z,59.2
2017-10-19T01:46:10.302Z,39.4
2017-10-19T01:47:11.961Z,43.6
2017-10-19T01:48:13.610Z,43.0
2017-10-19T01:49:15.271Z,40.6
2017-10-19T01:50:16.911Z,44.4
2017-10-19T01:51:18.573Z,43.0
2017-10-19T01:52:20.225Z,43.5
2017-10-19T01:53:21.880Z,46.6
2017-10-19T01:54:23.530Z,36.8
2017-10-19T01:55:25.220Z,46.9
2017-10-19T02:01:37.586Z,36.7
2017-10-19T02:02:39.245Z,38.1
2017-10-19T02:03:40.890Z,45.2
2017-10-19T02:04:42.531Z,42.7
2017-10-19T02:05:44.177Z,51.5
2017-10-19T02:06:45.830Z,48.1
2017-10-19T02:07:47.477Z,50.7
2017-10-19T02:08:49.132Z,61.6
2017-10-19T02:09:50.788Z,59.9
2017-10-19T02:10:52.430Z,49.5
2017-10-19T02:11:54.076Z,42.6
2017-10-19T02:12:55.749Z,47.1
2017-10-19T02:13:57.403Z,53.3
2017-10-19T02:14:59.064Z,48.2
2017-10-19T02:16:00.771Z,56.5
2017-10-19T02:17:02.443Z,56.5
2017-10-19T02:18:04.093Z,49.5
2017-10-19T02:19:05.745Z,54.2
2017-10-19T02:20:07.401Z,50.7
2017-10-19T02:21:09.056Z,59.2
2017-10-19T02:22:10.722Z,50.1
2017-10-19T02:23:12.374Z,44.7
2017-10-19T02:24:14.024Z,52.5
2017-10-19T02:25:15.673Z,51.6
2017-10-19T02:26:17.330Z,47.4
2017-10-19T02:27:18.997Z,60.3
2017-10-19T02:28:20.654Z,58.5
2017-10-19T02:29:22.301Z,62.5
2017-10-19T02:30:23.954Z,70.6
2017-10-19T02:31:25.614Z,56.8
2017-10-19T02:32:27.264Z,84.1
2017-10-19T02:33:28.919Z,64.3
2017-10-19T02:34:30.577Z,68.5
2017-10-19T02:35:32.227Z,93.9
2017-10-19T02:36:33.884Z,96.1
2017-10-19T02:37:35.544Z,70.6
2017-10-19T02:38:37.211Z,78.4
2017-10-19T02:39:38.862Z,86.3
2017-10-19T02:40:40.584Z,69.4
2017-10-19T02:41:42.242Z,72.6
2017-10-19T02:42:43.896Z,87.1
2017-10-19T02:43:45.547Z,77.5
2017-10-19T02:44:47.199Z,57.7
2017-10-19T02:45:48.870Z,70.8
2017-10-19T02:46:50.527Z,81.9
2017-10-19T02:47:52.190Z,102.6
2017-10-19T02:48:53.834Z,106.2
2017-10-19T02:49:55.486Z,75.3
2017-10-19T02:50:57.142Z,72.1
2017-10-19T02:51:58.798Z,72.5
2017-10-19T02:53:00.454Z,82.4
2017-10-19T02:54:02.229Z,74.9
2017-10-19T02:55:03.885Z,72.7
2017-10-19T02:56:05.573Z,62.2
2017-10-19T02:57:07.203Z,71.1
2017-10-19T02:58:08.856Z,64.6
2017-10-19T02:59:10.513Z,85.1
2017-10-19T03:00:12.170Z,75.8
2017-10-19T03:01:13.826Z,88.1
2017-10-19T03:02:15.496Z,101.4
2017-10-19T03:03:17.131Z,90.1
2017-10-19T03:04:18.786Z,109.4
2017-10-19T03:05:20.468Z,138.7
2017-10-19T03:06:22.126Z,109.2
2017-10-19T03:07:23.777Z,126.4
2017-10-19T03:08:25.423Z,130.6
2017-10-19T03:09:27.080Z,104.1
2017-10-19T03:10:28.726Z,74.1
2017-10-19T03:11:30.389Z,75.0
2017-10-19T03:12:32.043Z,100.8
2017-10-19T03:13:33.706Z,136.1
2017-10-19T03:14:35.354Z,101.4
2017-10-19T03:15:37.021Z,101.9
2017-10-19T03:16:38.677Z,138.7
2017-10-19T03:17:40.346Z,96.7
2017-10-19T03:18:41.991Z,95.0
2017-10-19T03:19:43.649Z,117.6
2017-10-19T03:20:45.304Z,123.5
2017-10-19T03:21:46.963Z,166.2
2017-10-19T03:22:48.612Z,114.8
2017-10-19T03:23:50.276Z,119.8
2017-10-19T03:24:51.922Z,112.0
2017-10-19T03:25:53.577Z,132.1
2017-10-19T03:26:55.266Z,125.5
2017-10-19T03:27:56.917Z,122.0
2017-10-19T03:28:58.573Z,85.1
2017-10-19T03:30:00.228Z,118.4
2017-10-19T03:31:01.878Z,141.0
2017-10-19T03:32:03.568Z,128.3
2017-10-19T03:33:05.219Z,94.9
2017-10-19T03:34:06.882Z,116.4
2017-10-19T03:35:08.537Z,99.9
2017-10-19T03:36:10.196Z,120.2
2017-10-19T03:37:11.849Z,103.2
2017-10-19T03:38:13.499Z,101.3
2017-10-19T03:39:15.147Z,99.0
2017-10-19T03:40:16.800Z,113.9
2017-10-19T03:41:18.464Z,158.9
2017-10-19T03:42:20.122Z,121.9
2017-10-19T03:43:21.774Z,115.7
2017-10-19T03:44:23.423Z,130.7
2017-10-19T03:45:25.107Z,107.4
2017-10-19T03:46:26.760Z,132.9
2017-10-19T03:47:28.469Z,104.7
2017-10-19T03:48:30.124Z,99.9
2017-10-19T03:49:31.785Z,118.8
2017-10-19T03:50:33.442Z,137.9
2017-10-19T03:51:35.085Z,148.8
2017-10-19T03:52:36.779Z,142.3
2017-10-19T03:53:38.432Z,125.1
2017-10-19T03:54:40.086Z,224.4
2017-10-19T03:55:41.743Z,342.4
2017-10-19T03:56:43.396Z,127.8
2017-10-19T03:57:45.039Z,134.0
2017-10-19T03:58:46.692Z,112.3
2017-10-19T03:59:48.349Z,109.5
2017-10-19T04:00:49.998Z,133.0
2017-10-19T04:01:51.646Z,199.7
2017-10-19T04:02:53.308Z,351.2
2017-10-19T04:03:54.969Z,240.9
2017-10-19T04:04:56.614Z,95.8
2017-10-19T04:05:58.263Z,142.1
2017-10-19T04:06:59.930Z,114.7
2017-10-19T04:08:01.619Z,105.4
2017-10-19T04:09:03.277Z,154.1
2017-10-19T04:10:04.932Z,144.5
2017-10-19T04:11:06.592Z,131.4
2017-10-19T04:12:08.257Z,150.8
2017-10-19T04:13:09.950Z,109.1
2017-10-19T04:14:11.613Z,107.2
2017-10-19T04:15:13.260Z,138.8
2017-10-19T04:16:14.904Z,151.8
2017-10-19T04:17:16.563Z,128.8
2017-10-19T04:18:18.223Z,141.2
2017-10-19T04:19:20.168Z,107.4
2017-10-19T04:20:21.827Z,124.0
2017-10-19T04:21:23.496Z,137.7
2017-10-19T04:22:25.187Z,97.3
2017-10-19T04:23:26.862Z,103.8
2017-10-19T04:24:28.518Z,126.0
2017-10-19T04:25:30.175Z,116.2
2017-10-19T04:26:31.860Z,104.9
2017-10-19T04:27:33.514Z,123.3
2017-10-19T04:28:39.082Z,148.1
2017-10-19T04:33:12.282Z,100.9
2017-10-19T04:34:15.001Z,109.0
2017-10-19T04:35:18.030Z,110.2
2017-10-19T04:36:20.866Z,121.7
2017-10-19T04:37:23.827Z,89.7
2017-10-19T04:38:26.734Z,104.3
2017-10-19T04:39:29.631Z,90.2
2017-10-19T04:40:32.491Z,98.0
2017-10-19T04:41:35.409Z,122.7
2017-10-19T04:42:38.347Z,128.2
2017-10-19T04:44:05.053Z,126.0
2017-10-19T04:45:07.540Z,154.6
2017-10-19T04:46:10.493Z,173.4
2017-10-19T04:47:13.367Z,123.6
2017-10-19T04:48:16.175Z,111.0
2017-10-19T04:49:19.088Z,202.7
2017-10-19T04:56:18.175Z,132.9
2017-10-19T04:57:19.891Z,150.9
2017-10-19T04:58:21.545Z,118.9
2017-10-19T04:59:23.208Z,169.0
2017-10-19T05:00:24.912Z,122.7
2017-10-19T05:01:26.562Z,163.8
2017-10-19T05:02:28.213Z,160.4
2017-10-19T05:03:29.905Z,91.0
2017-10-19T05:04:31.544Z,93.5
2017-10-19T05:05:33.193Z,108.9
2017-10-19T05:06:34.879Z,126.8
2017-10-19T05:07:36.534Z,118.9
2017-10-19T05:08:39.033Z,126.7
2017-10-19T05:09:40.690Z,130.5
2017-10-19T05:10:43.480Z,131.8
2017-10-19T05:11:45.127Z,150.5
2017-10-19T05:12:46.871Z,255.6
2017-10-19T05:13:48.542Z,113.9
2017-10-19T05:14:50.200Z,124.3
2017-10-19T05:15:51.859Z,153.2
2017-10-19T05:16:53.522Z,503.0
2017-10-19T05:17:55.195Z,159.2
2017-10-19T05:18:56.852Z,199.1
2017-10-19T05:19:58.500Z,193.1
2017-10-19T05:21:00.156Z,191.7
2017-10-19T05:22:01.855Z,119.6
2017-10-19T05:23:03.519Z,110.0
2017-10-19T05:24:05.182Z,128.3
2017-10-19T05:25:06.843Z,140.5
2017-10-19T05:26:08.502Z,178.8
2017-10-19T05:27:10.165Z,259.4
2017-10-19T05:28:11.823Z,204.8
2017-10-19T05:29:13.474Z,169.5
2017-10-19T05:30:15.134Z,169.4
2017-10-19T05:31:16.825Z,182.9
2017-10-19T05:32:18.487Z,157.3
2017-10-19T05:33:20.155Z,153.0
2017-10-19T05:34:21.830Z,190.8
2017-10-19T05:35:23.495Z,194.2
2017-10-19T05:36:25.232Z,206.9
2017-10-19T05:37:26.881Z,163.5
2017-10-19T05:38:28.540Z,178.6
2017-10-19T05:39:30.210Z,178.1
2017-10-19T05:40:31.853Z,213.7
2017-10-19T05:41:33.538Z,210.3
2017-10-19T05:42:35.205Z,214.6
2017-10-19T05:43:36.864Z,370.4
2017-10-19T05:44:38.517Z,347.5
2017-10-19T05:45:40.179Z,298.9
2017-10-19T05:46:41.838Z,225.3
2017-10-19T05:47:43.503Z,130.4
2017-10-19T05:48:45.152Z,134.4
2017-10-19T05:49:46.809Z,123.3
2017-10-19T05:50:48.494Z,157.7
2017-10-19T05:51:50.151Z,186.9
2017-10-19T05:52:51.828Z,149.0
2017-10-19T05:53:53.491Z,105.5
2017-10-19T05:54:55.144Z,86.9
2017-10-19T06:01:17.762Z,125.7
2017-10-19T06:02:19.997Z,238.5
2017-10-19T06:03:21.019Z,142.8
2017-10-19T06:04:22.679Z,128.0
2017-10-19T06:05:24.355Z,216.4
2017-10-19T06:06:26.020Z,143.3
2017-10-19T06:07:27.699Z,111.9
2017-10-19T06:08:29.352Z,90.8
2017-10-19T06:09:31.017Z,108.0
2017-10-19T06:10:32.680Z,124.3
2017-10-19T06:11:34.389Z,122.5
2017-10-19T06:12:36.060Z,132.9
2017-10-19T06:13:37.731Z,112.1
2017-10-19T06:14:39.386Z,140.4
2017-10-19T06:15:41.047Z,124.1
2017-10-19T06:16:42.699Z,98.2
2017-10-19T06:17:44.406Z,90.7
2017-10-19T06:18:46.068Z,136.1
2017-10-19T06:19:47.728Z,128.3
2017-10-19T06:20:49.396Z,150.5
2017-10-19T06:21:51.095Z,132.6
2017-10-19T06:22:52.757Z,195.9
2017-10-19T06:23:54.430Z,120.5
2017-10-19T06:24:56.104Z,127.2
2017-10-19T06:25:57.779Z,146.6
2017-10-19T06:26:59.459Z,278.1
2017-10-19T06:28:01.120Z,199.4
2017-10-19T06:29:02.805Z,120.7
2017-10-19T06:30:04.479Z,129.3
2017-10-19T06:31:06.142Z,144.4
2017-10-19T06:32:07.807Z,134.6
2017-10-19T06:33:09.471Z,176.8
2017-10-19T06:34:11.134Z,198.2
2017-10-19T06:35:12.790Z,168.6
2017-10-19T06:36:14.504Z,133.8
2017-10-19T06:37:16.155Z,187.9
2017-10-19T06:38:17.812Z,102.8
2017-10-19T06:39:19.482Z,115.4
2017-10-19T06:40:21.138Z,101.7
2017-10-19T06:41:22.804Z,102.4
2017-10-19T06:42:24.495Z,78.5
2017-10-19T06:43:26.172Z,87.9
2017-10-19T06:44:27.859Z,103.1
2017-10-19T06:45:29.521Z,112.8
2017-10-19T06:46:31.172Z,102.0
2017-10-19T06:47:32.840Z,125.1
2017-10-19T06:48:34.533Z,104.4
2017-10-19T06:49:36.196Z,87.9
2017-10-19T06:50:37.862Z,95.0
2017-10-19T06:51:39.805Z,89.1
2017-10-19T06:52:41.501Z,100.4
2017-10-19T06:53:43.161Z,111.2
2017-10-19T06:54:44.830Z,173.4
2017-10-19T06:55:46.497Z,111.5
2017-10-19T06:56:48.185Z,122.6
2017-10-19T06:57:49.848Z,113.7
2017-10-19T06:58:51.511Z,123.3
2017-10-19T06:59:53.171Z,117.9
2017-10-19T07:00:54.835Z,177.5
2017-10-19T07:01:56.490Z,95.1
2017-10-19T07:02:58.155Z,131.6
2017-10-19T07:03:59.828Z,163.6
2017-10-19T07:05:01.493Z,160.3
2017-10-19T07:06:03.185Z,183.9
2017-10-19T07:07:04.852Z,126.5
2017-10-19T07:08:06.502Z,74.7
2017-10-19T07:09:08.163Z,123.0
2017-10-19T07:10:09.824Z,84.6
2017-10-19T07:11:11.482Z,82.0
2017-10-19T07:12:13.152Z,70.2
2017-10-19T07:13:14.820Z,51.1
2017-10-19T07:14:16.486Z,79.1
2017-10-19T07:15:18.149Z,71.2
2017-10-19T07:16:19.820Z,73.9
2017-10-19T07:17:21.492Z,104.3
2017-10-19T07:18:23.230Z,96.5
2017-10-19T07:19:25.028Z,126.6
2017-10-19T07:20:26.690Z,101.3
2017-10-19T07:21:28.348Z,67.0
2017-10-19T07:22:29.999Z,131.7
2017-10-19T07:23:31.663Z,81.7
2017-10-19T07:24:33.326Z,87.1
2017-10-19T07:25:34.982Z,86.9
2017-10-19T07:26:36.645Z,109.7
2017-10-19T07:27:38.333Z,83.2
2017-10-19T07:28:40.066Z,146.7
2017-10-19T07:29:41.732Z,107.3
2017-10-19T07:30:43.388Z,51.4
2017-10-19T07:31:45.115Z,123.2
2017-10-19T07:32:46.792Z,127.8
2017-10-19T07:33:48.465Z,218.9
2017-10-19T07:34:50.150Z,108.5
2017-10-19T07:35:51.818Z,149.9
2017-10-19T07:36:53.493Z,108.3
2017-10-19T07:37:55.152Z,66.1
2017-10-19T07:38:56.805Z,106.4
2017-10-19T07:39:58.466Z,111.0
2017-10-19T07:41:00.127Z,58.9
2017-10-19T07:42:01.792Z,141.2
2017-10-19T07:43:03.489Z,80.2
2017-10-19T07:44:05.148Z,68.6
2017-10-19T07:45:06.809Z,59.8
2017-10-19T07:46:08.474Z,49.3
2017-10-19T07:47:10.134Z,57.6
2017-10-19T07:48:11.794Z,64.9
2017-10-19T07:49:13.476Z,59.6
2017-10-19T07:50:15.137Z,73.1
2017-10-19T07:51:16.834Z,87.7
2017-10-19T07:52:18.497Z,101.0
2017-10-19T07:53:20.167Z,156.8
2017-10-19T07:54:21.824Z,97.7
2017-10-19T07:55:23.484Z,80.4
2017-10-19T07:56:25.241Z,115.2
2017-10-19T07:57:26.962Z,98.4
2017-10-19T07:58:28.661Z,133.5
2017-10-19T07:59:30.328Z,110.0
2017-10-19T08:00:31.991Z,113.2
2017-10-19T08:01:33.657Z,140.2
2017-10-19T08:02:35.320Z,136.2
2017-10-19T08:03:36.987Z,85.9
2017-10-19T08:04:38.657Z,105.5
2017-10-19T08:05:40.317Z,88.0
2017-10-19T08:06:41.977Z,92.0
2017-10-19T08:07:43.645Z,96.8
2017-10-19T08:08:45.490Z,65.0
2017-10-19T08:09:47.215Z,100.9
2017-10-19T08:10:48.889Z,131.0
2017-10-19T08:11:50.602Z,85.5
2017-10-19T08:12:52.252Z,103.6
2017-10-19T08:13:54.851Z,93.7
2017-10-19T08:14:56.520Z,100.5
2017-10-19T08:15:58.194Z,94.1
2017-10-19T08:16:59.882Z,96.4
2017-10-19T08:18:01.542Z,84.3
2017-10-19T08:19:03.266Z,123.9
2017-10-19T08:20:04.940Z,100.7
2017-10-19T08:21:06.607Z,76.7
2017-10-19T08:22:08.276Z,107.2
2017-10-19T08:23:09.964Z,77.3
2017-10-19T08:24:11.647Z,79.2
2017-10-19T08:25:13.310Z,68.6
2017-10-19T08:26:15.032Z,69.0
2017-10-19T08:27:16.701Z,50.4
2017-10-19T08:28:18.364Z,47.5
2017-10-19T08:29:20.025Z,57.0
2017-10-19T08:30:21.686Z,63.8
2017-10-19T08:31:23.376Z,61.3
2017-10-19T08:32:25.061Z,51.6
2017-10-19T08:33:26.717Z,70.7
2017-10-19T08:34:28.394Z,69.8
2017-10-19T08:35:30.079Z,56.5
2017-10-19T08:36:31.728Z,42.7
2017-10-19T08:37:33.386Z,31.6
2017-10-19T08:38:35.068Z,41.5
2017-10-19T08:39:36.709Z,37.9
2017-10-19T08:40:38.427Z,37.3
2017-10-19T08:41:40.085Z,65.2
2017-10-19T08:42:41.794Z,45.7
2017-10-19T08:43:43.455Z,36.3
2017-10-19T08:44:45.123Z,33.9
2017-10-19T08:45:46.800Z,36.5
2017-10-19T08:46:48.473Z,25.5
2017-10-19T08:47:50.141Z,17.9
2017-10-19T08:48:51.801Z,19.7
2017-10-19T08:49:53.568Z,17.4
2017-10-19T08:50:55.253Z,22.4
2017-10-19T08:51:56.921Z,21.8
2017-10-19T08:52:58.587Z,22.5
2017-10-19T08:54:00.266Z,29.8
2017-10-19T08:55:01.924Z,36.3
2017-10-19T08:56:03.595Z,43.3
2017-10-19T08:57:05.280Z,41.7
2017-10-19T08:58:06.952Z,33.4
2017-10-19T08:59:08.618Z,23.8
2017-10-19T09:00:10.291Z,32.0
2017-10-19T09:01:11.962Z,36.8
2017-10-19T09:02:13.643Z,33.0
2017-10-19T09:03:15.310Z,33.1
2017-10-19T09:04:16.971Z,40.6
2017-10-19T09:05:18.655Z,31.0
2017-10-19T09:06:20.429Z,24.2
2017-10-19T09:07:22.307Z,27.5
2017-10-19T09:08:23.988Z,20.2
2017-10-19T09:09:25.682Z,15.4
2017-10-19T09:10:27.352Z,18.4
2017-10-19T09:11:29.022Z,16.5
2017-10-19T09:12:30.710Z,18.5
2017-10-19T09:13:32.379Z,19.3
2017-10-19T09:14:34.069Z,16.4
2017-10-19T09:15:35.804Z,18.0
2017-10-19T09:16:37.468Z,17.7
2017-10-19T09:17:39.133Z,18.0
2017-10-19T09:18:40.833Z,21.5
2017-10-19T09:19:42.791Z,17.5
2017-10-19T09:20:44.501Z,17.4
2017-10-19T09:21:46.268Z,16.0
2017-10-19T09:22:48.242Z,13.8
2017-10-19T09:23:50.299Z,18.3
2017-10-19T09:24:52.873Z,34.0
2017-10-19T09:25:54.825Z,64.8
2017-10-19T09:26:56.747Z,44.0
2017-10-19T09:27:58.771Z,32.4
2017-10-19T09:29:00.600Z,50.4
2017-10-19T09:30:03.544Z,52.8
2017-10-19T09:31:05.393Z,39.6
2017-10-19T09:32:07.224Z,45.2
2017-10-19T09:33:08.951Z,39.3
2017-10-19T09:34:10.835Z,30.3
2017-10-19T09:35:12.790Z,23.3
2017-10-19T09:36:14.685Z,15.7
2017-10-19T09:37:16.603Z,21.1
2017-10-19T09:38:18.562Z,17.0
2017-10-19T09:39:20.438Z,16.2
2017-10-19T09:40:22.315Z,22.4
2017-10-19T09:41:24.186Z,28.0
2017-10-19T09:42:26.070Z,29.5
2017-10-19T09:43:27.891Z,21.7
2017-10-19T09:44:29.822Z,25.9
2017-10-19T09:45:31.976Z,27.0
2017-10-19T09:46:33.928Z,50.4
2017-10-19T09:47:35.939Z,55.3
2017-10-19T09:48:37.815Z,36.4
2017-10-19T09:49:39.734Z,33.9
2017-10-19T09:50:41.686Z,24.6
2017-10-19T09:51:43.556Z,27.7
2017-10-19T09:52:45.400Z,32.5
2017-10-19T09:53:47.268Z,35.3
2017-10-19T09:54:49.223Z,39.8
2017-10-19T09:55:51.190Z,48.8
2017-10-19T10:02:07.132Z,17.0
2017-10-19T10:03:08.841Z,14.4
2017-10-19T10:04:10.619Z,15.0
2017-10-19T10:05:12.494Z,16.8
2017-10-19T10:06:14.449Z,25.8
2017-10-19T10:07:16.375Z,21.5
2017-10-19T10:08:18.287Z,26.4
2017-10-19T10:09:20.229Z,23.1
2017-10-19T10:10:22.500Z,23.9
2017-10-19T10:11:24.460Z,29.6
2017-10-19T10:12:26.353Z,32.5
2017-10-19T10:13:28.816Z,33.3
2017-10-19T10:14:30.237Z,43.6
2017-10-19T10:15:32.241Z,30.5
2017-10-19T10:16:34.435Z,30.9
2017-10-19T10:17:36.439Z,25.5
2017-10-19T10:18:38.428Z,23.8
2017-10-19T10:19:40.401Z,24.1
2017-10-19T10:20:42.230Z,31.2
2017-10-19T10:21:44.126Z,28.2
2017-10-19T10:22:46.147Z,25.7
2017-10-19T10:23:47.977Z,22.6
2017-10-19T10:24:49.793Z,23.3
2017-10-19T10:25:51.659Z,26.5
2017-10-19T10:26:53.497Z,24.3
2017-10-19T10:27:55.355Z,24.7
2017-10-19T10:28:57.207Z,27.6
2017-10-19T10:29:59.300Z,31.3
2017-10-19T10:31:01.142Z,32.8
2017-10-19T10:32:03.053Z,34.5
2017-10-19T10:33:05.022Z,33.6
2017-10-19T10:34:07.280Z,26.5
2017-10-19T10:35:09.249Z,27.7
2017-10-19T10:36:11.218Z,23.2
2017-10-19T10:37:13.130Z,14.9
2017-10-19T10:38:15.041Z,16.8
2017-10-19T10:39:18.211Z,23.8
2017-10-19T10:40:20.581Z,30.7
2017-10-19T10:41:22.468Z,25.4
2017-10-19T10:42:24.311Z,18.8
2017-10-19T10:43:26.178Z,14.3
2017-10-19T10:44:28.067Z,11.4
2017-10-19T10:45:29.987Z,14.1
2017-10-19T10:46:31.907Z,15.0
2017-10-19T10:47:33.949Z,12.3
2017-10-19T10:48:35.797Z,11.9
2017-10-19T10:49:37.725Z,12.2
2017-10-19T10:50:39.600Z,12.7
2017-10-19T10:51:41.439Z,14.7
2017-10-19T10:52:43.235Z,14.4
2017-10-19T10:53:45.098Z,13.0
2017-10-19T10:54:46.912Z,15.8
2017-10-19T10:55:48.926Z,13.0
2017-10-19T10:56:50.948Z,12.8
2017-10-19T10:57:52.950Z,13.1
2017-10-19T10:58:54.893Z,13.0
2017-10-19T10:59:56.777Z,14.1
2017-10-19T11:00:58.566Z,16.8
2017-10-19T11:02:00.420Z,13.2
2017-10-19T11:03:02.236Z,16.6
2017-10-19T11:04:04.080Z,11.0
2017-10-19T11:05:05.909Z,15.0
2017-10-19T11:06:07.722Z,17.0
2017-10-19T11:07:09.582Z,12.6
2017-10-19T11:08:11.529Z,12.1
2017-10-19T11:09:13.362Z,12.7
2017-10-19T11:10:15.094Z,13.2
2017-10-19T11:11:16.850Z,12.8
2017-10-19T11:12:18.733Z,11.7
2017-10-19T11:13:20.580Z,11.4
2017-10-19T11:14:22.394Z,11.2
2017-10-19T11:15:24.734Z,14.2
2017-10-19T11:16:26.483Z,11.9
2017-10-19T11:17:28.480Z,14.9
2017-10-19T11:18:30.280Z,13.5
2017-10-19T11:19:32.200Z,10.2
2017-10-19T11:20:34.032Z,11.3
2017-10-19T11:21:35.981Z,15.5
2017-10-19T11:22:37.863Z,18.6
2017-10-19T11:23:39.701Z,17.9
2017-10-19T11:24:41.593Z,17.4
2017-10-19T11:25:43.382Z,14.8
2017-10-19T11:26:45.231Z,35.7
2017-10-19T11:27:47.062Z,41.1
2017-10-19T11:28:48.923Z,31.6
2017-10-19T11:29:50.762Z,20.2
2017-10-19T11:30:52.725Z,30.2
2017-10-19T11:31:54.581Z,47.1
2017-10-19T11:32:57.085Z,48.8
2017-10-19T11:33:59.020Z,23.2
2017-10-19T11:35:00.832Z,14.3
2017-10-19T11:36:02.708Z,13.0
2017-10-19T11:37:04.501Z,11.8
2017-10-19T11:38:06.593Z,12.3
2017-10-19T11:39:08.908Z,18.9
2017-10-19T11:40:10.668Z,11.3
2017-10-19T11:41:13.526Z,37.6
2017-10-19T11:42:15.543Z,24.6
2017-10-19T11:43:17.385Z,25.4
2017-10-19T11:44:30.101Z,25.7
2017-10-19T11:45:31.661Z,22.4
2017-10-19T11:46:34.234Z,22.7
2017-10-19T11:47:36.248Z,14.1
2017-10-19T11:48:38.090Z,14.4
2017-10-19T11:49:39.912Z,14.4
2017-10-19T11:50:41.633Z,13.3
2017-10-19T11:51:43.369Z,14.5
2017-10-19T11:52:45.073Z,13.6
2017-10-19T11:53:46.837Z,14.7
2017-10-19T11:54:48.602Z,15.4
2017-10-19T11:55:50.659Z,16.3
2017-10-19T11:56:52.398Z,13.7
2017-10-19T11:57:54.184Z,13.2
2017-10-19T11:58:55.917Z,15.2
2017-10-19T11:59:57.620Z,13.3
2017-10-19T12:00:59.371Z,13.5
2017-10-19T12:02:01.095Z,14.2
2017-10-19T12:03:02.820Z,13.5
2017-10-19T12:04:04.571Z,14.6
2017-10-19T12:05:06.405Z,16.6
2017-10-19T12:06:08.224Z,16.0
2017-10-19T12:07:09.921Z,14.7
2017-10-19T12:08:11.594Z,16.4
2017-10-19T12:09:14.008Z,14.5
2017-10-19T12:10:15.682Z,18.2
2017-10-19T12:11:18.133Z,17.8
2017-10-19T12:12:19.802Z,15.9
2017-10-19T12:13:22.527Z,13.1
2017-10-19T12:14:24.317Z,21.1
2017-10-19T12:15:26.671Z,17.7
2017-10-19T12:16:28.550Z,12.6
2017-10-19T12:17:30.849Z,15.0
2017-10-19T12:18:32.657Z,15.6
2017-10-19T12:19:34.461Z,13.1
2017-10-19T12:20:37.912Z,19.5
2017-10-19T12:21:40.801Z,26.4
2017-10-19T12:22:42.666Z,25.4
2017-10-19T12:23:44.502Z,15.4
2017-10-19T12:24:46.312Z,20.3
2017-10-19T12:25:48.013Z,40.4
2017-10-19T12:26:49.824Z,35.2
2017-10-19T12:27:51.650Z,38.3
2017-10-19T12:28:53.531Z,22.6
2017-10-19T12:29:55.431Z,18.9
2017-10-19T12:31:06.817Z,14.1
2017-10-19T12:32:08.637Z,13.3
2017-10-19T12:33:11.163Z,13.2
2017-10-19T12:34:13.009Z,12.0
2017-10-19T12:35:14.913Z,15.4
2017-10-19T12:36:16.770Z,20.6
2017-10-19T12:37:19.058Z,17.7
2017-10-19T12:38:20.912Z,14.2
2017-10-19T12:39:23.295Z,15.4
2017-10-19T12:40:26.755Z,44.8
2017-10-19T12:41:28.643Z,39.4
2017-10-19T12:42:30.770Z,26.9
2017-10-19T12:43:32.651Z,28.4
2017-10-19T12:44:34.586Z,50.2
2017-10-19T12:45:36.455Z,26.5
2017-10-19T12:46:38.353Z,18.1
2017-10-19T12:47:40.282Z,29.2
2017-10-19T12:48:42.229Z,34.2
2017-10-19T12:49:45.384Z,21.7
2017-10-19T12:50:47.142Z,23.8
2017-10-19T12:51:50.760Z,24.2
2017-10-19T12:52:52.720Z,21.5
2017-10-19T12:53:54.566Z,20.3
2017-10-19T12:54:56.411Z,20.4
2017-10-19T12:55:58.293Z,22.8
2017-10-19T12:57:00.150Z,27.9
2017-10-19T12:58:02.099Z,26.9
2017-10-19T12:59:03.904Z,21.9
2017-10-19T13:00:05.674Z,29.3
2017-10-19T13:01:07.448Z,20.9
2017-10-19T13:02:09.281Z,20.0
2017-10-19T13:03:11.114Z,22.6
2017-10-19T13:04:12.947Z,17.4
2017-10-19T13:05:14.758Z,11.8
2017-10-19T13:06:16.604Z,14.2
2017-10-19T13:07:18.388Z,13.9
2017-10-19T13:08:20.215Z,13.9
2017-10-19T13:09:22.053Z,13.2
2017-10-19T13:10:23.874Z,9.4
2017-10-19T13:11:25.665Z,14.4
2017-10-19T13:12:27.529Z,11.4
2017-10-19T13:13:29.349Z,15.3
2017-10-19T13:14:31.189Z,12.6
2017-10-19T13:15:33.101Z,13.7
2017-10-19T13:16:34.982Z,14.4
2017-10-19T13:17:36.873Z,14.7
2017-10-19T13:18:38.900Z,11.0
2017-10-19T13:19:40.797Z,11.9
2017-10-19T13:20:42.788Z,12.5
2017-10-19T13:21:44.768Z,12.5
2017-10-19T13:22:46.971Z,13.5
2017-10-19T13:23:48.918Z,12.6
2017-10-19T13:24:50.862Z,12.8
2017-10-19T13:25:52.965Z,15.4
2017-10-19T13:26:54.775Z,13.3
2017-10-19T13:27:56.762Z,14.3
2017-10-19T13:28:58.624Z,14.4
2017-10-19T13:30:00.463Z,13.9
2017-10-19T13:31:02.431Z,14.5
2017-10-19T13:32:04.366Z,10.6
2017-10-19T13:33:06.142Z,12.7
2017-10-19T13:34:08.041Z,14.9
2017-10-19T13:35:09.970Z,11.9
2017-10-19T13:36:11.873Z,15.0
2017-10-19T13:37:13.735Z,12.2
2017-10-19T13:38:15.586Z,11.3
2017-10-19T13:39:17.419Z,12.5
2017-10-19T13:40:19.267Z,14.9
2017-10-19T13:41:21.162Z,17.1
2017-10-19T13:42:23.086Z,15.0
2017-10-19T13:43:24.992Z,12.1
2017-10-19T13:44:26.921Z,17.2
2017-10-19T13:45:28.821Z,14.3
2017-10-19T13:46:30.786Z,14.3
2017-10-19T13:47:32.960Z,18.3
2017-10-19T13:48:34.742Z,17.7
2017-10-19T13:49:36.582Z,15.0
2017-10-19T13:50:38.397Z,12.1
2017-10-19T13:51:40.384Z,17.0
2017-10-19T13:52:42.350Z,13.7
2017-10-19T13:53:44.298Z,15.2
2017-10-19T13:54:46.419Z,14.7
2017-10-19T13:55:48.424Z,17.9
2017-10-19T14:01:43.902Z,16.3
2017-10-19T14:02:45.638Z,14.1
2017-10-19T14:03:47.300Z,19.9
2017-10-19T14:04:48.964Z,14.7